createdAt,value
2022-08-21T00:00:14.622Z,61.78
2022-08-21T00:05:41.220Z,61.74
2022-08-21T00:10:45.629Z,61.83
2022-08-21T00:15:49.939Z,61.89
2022-08-21T00:20:53.563Z,61.95
2022-08-21T00:25:56.517Z,61.98
2022-08-21T00:30:59.782Z,62.03
2022-08-21T00:36:03.509Z,61.97
2022-08-21T00:41:32.229Z,61.92
2022-08-21T00:46:32.881Z,61.93
2022-08-21T00:51:51.242Z,62.02
2022-08-21T00:57:00.780Z,62.05
2022-08-21T01:02:06.452Z,62.17
2022-08-21T01:07:10.009Z,62.24
2022-08-21T01:12:13.835Z,62.12
2022-08-21T01:17:18.806Z,62.30
2022-08-21T01:22:21.673Z,62.34
2022-08-21T01:27:24.548Z,62.60
2022-08-21T01:32:27.744Z,62.44
2022-08-21T01:37:30.817Z,62.54
2022-08-21T01:42:35.024Z,62.49
2022-08-21T01:47:38.675Z,62.47
2022-08-21T01:52:41.705Z,62.58
2022-08-21T01:57:46.113Z,62.78
2022-08-21T02:02:49.000Z,62.67
2022-08-21T02:07:54.118Z,62.77
2022-08-21T02:12:58.044Z,62.96
2022-08-21T02:18:03.058Z,62.85
2022-08-21T02:23:07.403Z,62.89
2022-08-21T02:28:13.681Z,62.94
2022-08-21T02:33:17.152Z,63.12
2022-08-21T02:38:23.784Z,63.05
2022-08-21T02:43:28.309Z,63.06
2022-08-21T02:48:33.080Z,63.14
2022-08-21T02:53:36.852Z,63.22
2022-08-21T02:58:46.483Z,63.22
2022-08-21T03:03:52.199Z,63.39
2022-08-21T03:08:55.327Z,63.46
2022-08-21T03:13:58.201Z,63.41
2022-08-21T03:19:01.043Z,63.46
2022-08-21T03:24:05.341Z,63.39
2022-08-21T03:29:09.852Z,63.56
2022-08-21T03:34:12.781Z,63.60
2022-08-21T03:39:17.706Z,63.45
2022-08-21T03:44:20.837Z,63.47
2022-08-21T03:49:23.857Z,63.63
2022-08-21T03:54:28.829Z,63.60
2022-08-21T03:59:31.909Z,63.59
2022-08-21T04:04:35.318Z,63.64
2022-08-21T04:09:38.592Z,63.68
2022-08-21T04:14:42.898Z,63.62
2022-08-21T04:19:49.317Z,63.63
2022-08-21T04:24:54.584Z,63.73
2022-08-21T04:29:57.652Z,63.76
2022-08-21T04:35:02.470Z,63.75
2022-08-21T04:40:06.656Z,63.83
2022-08-21T04:45:10.826Z,63.91
2022-08-21T04:50:13.726Z,63.87
2022-08-21T04:55:20.187Z,64.03
2022-08-21T05:00:25.567Z,63.96
2022-08-21T05:05:30.375Z,63.96
2022-08-21T05:10:33.749Z,63.88
2022-08-21T05:15:36.604Z,63.91
2022-08-21T05:20:39.660Z,63.96
2022-08-21T05:25:42.757Z,64.00
2022-08-21T05:30:46.092Z,64.10
2022-08-21T05:35:53.011Z,64.26
2022-08-21T05:40:56.291Z,64.27
2022-08-21T05:45:59.486Z,64.32
2022-08-21T05:51:07.852Z,64.33
2022-08-21T05:56:12.356Z,64.25
2022-08-21T06:01:16.937Z,64.28
2022-08-21T06:06:20.046Z,64.26
2022-08-21T06:11:26.995Z,64.29
2022-08-21T06:16:31.879Z,64.05
2022-08-21T06:21:34.808Z,64.11
2022-08-21T06:26:38.132Z,64.08
2022-08-21T06:31:41.969Z,63.97
2022-08-21T06:36:45.376Z,64.01
2022-08-21T06:41:48.805Z,64.12
2022-08-21T06:46:51.712Z,64.09
2022-08-21T06:51:55.132Z,64.17
2022-08-21T06:56:58.140Z,64.26
2022-08-21T07:02:01.686Z,64.10
2022-08-21T07:07:04.714Z,63.90
2022-08-21T07:12:08.170Z,64.03
2022-08-21T07:17:11.150Z,63.90
2022-08-21T07:22:19.224Z,63.80
2022-08-21T07:27:22.498Z,63.68
2022-08-21T07:32:25.793Z,63.66
2022-08-21T07:37:28.760Z,63.75
2022-08-21T07:42:33.125Z,63.71
2022-08-21T07:47:42.571Z,63.68
2022-08-21T07:52:46.807Z,63.61
2022-08-21T07:57:50.418Z,63.61
2022-08-21T08:02:55.193Z,63.64
2022-08-21T08:07:58.262Z,63.51
2022-08-21T08:13:01.624Z,63.51
2022-08-21T08:18:05.217Z,63.64
2022-08-21T08:23:11.677Z,63.40
2022-08-21T08:28:17.154Z,63.39
2022-08-21T08:33:21.049Z,63.27
2022-08-21T08:38:26.294Z,63.13
2022-08-21T08:43:31.165Z,63.21
2022-08-21T08:48:36.855Z,63.09
2022-08-21T08:54:03.972Z,62.86
2022-08-21T08:59:27.701Z,62.87
2022-08-21T09:04:31.471Z,62.98
2022-08-21T09:09:52.693Z,62.95
2022-08-21T09:15:13.567Z,62.73
2022-08-21T09:20:45.364Z,62.81
2022-08-21T09:26:05.520Z,62.65
2022-08-21T09:31:17.057Z,62.52
2022-08-21T09:36:42.196Z,62.38
2022-08-21T09:41:45.164Z,62.22
2022-08-21T09:46:53.625Z,62.00
2022-08-21T09:51:59.652Z,61.80
2022-08-21T09:57:36.161Z,61.75
2022-08-21T10:02:39.405Z,61.36
2022-08-21T10:07:42.530Z,61.10
2022-08-21T10:12:59.016Z,61.05
2022-08-21T10:18:21.312Z,60.84
2022-08-21T10:23:42.633Z,60.86
2022-08-21T10:29:12.612Z,60.55
2022-08-21T10:34:53.382Z,60.54
2022-08-21T10:40:32.892Z,60.40
2022-08-21T10:46:11.369Z,59.95
2022-08-21T10:51:33.588Z,60.07
2022-08-21T10:56:41.616Z,60.04
2022-08-21T11:02:26.732Z,59.85
2022-08-21T11:07:45.035Z,59.76
2022-08-21T11:12:54.882Z,59.78
2022-08-21T11:18:27.482Z,59.58
2022-08-21T11:23:39.635Z,59.47
2022-08-21T11:29:02.178Z,59.10
2022-08-21T11:34:13.883Z,58.51
2022-08-21T11:39:26.548Z,58.41
2022-08-21T11:44:51.819Z,57.98
2022-08-21T11:50:20.603Z,57.72
2022-08-21T11:55:58.855Z,57.73
2022-08-21T12:01:31.962Z,57.77
2022-08-21T12:06:41.881Z,57.72
2022-08-21T12:11:49.201Z,58.06
2022-08-21T12:16:52.970Z,58.40
2022-08-21T12:21:58.512Z,58.68
2022-08-21T12:27:29.585Z,58.72
2022-08-21T12:32:47.642Z,59.02
2022-08-21T12:37:53.583Z,58.96
2022-08-21T12:43:00.515Z,59.27
2022-08-21T12:48:25.018Z,59.39
2022-08-21T12:53:37.208Z,59.54
2022-08-21T12:58:47.452Z,59.65
2022-08-21T13:04:00.255Z,59.67
2022-08-21T13:09:13.905Z,59.97
2022-08-21T13:14:30.221Z,60.39
2022-08-21T13:19:35.241Z,60.89
2022-08-21T13:24:42.956Z,61.09
2022-08-21T13:29:53.248Z,61.19
2022-08-21T13:34:59.807Z,61.17
2022-08-21T13:40:03.120Z,61.12
2022-08-21T13:45:15.012Z,61.04
2022-08-21T13:50:21.908Z,60.99
2022-08-21T13:55:26.086Z,60.66
2022-08-21T14:00:31.464Z,60.87
2022-08-21T14:05:38.979Z,61.09
2022-08-21T14:10:48.605Z,61.15
2022-08-21T14:16:02.351Z,61.35
2022-08-21T14:21:10.261Z,61.64
2022-08-21T14:26:13.289Z,61.88
2022-08-21T14:31:19.751Z,62.23
2022-08-21T14:36:23.523Z,62.27
2022-08-21T14:41:29.106Z,62.27
2022-08-21T14:46:33.190Z,62.33
2022-08-21T14:51:36.604Z,62.29
2022-08-21T14:56:47.643Z,62.52
2022-08-21T15:01:51.023Z,62.53
2022-08-21T15:06:54.406Z,62.58
2022-08-21T15:12:01.383Z,62.65
2022-08-21T15:17:06.772Z,62.66
2022-08-21T15:22:15.505Z,62.44
2022-08-21T15:27:22.121Z,62.38
2022-08-21T15:32:29.941Z,62.26
2022-08-21T15:37:33.455Z,62.13
2022-08-21T15:42:36.716Z,62.15
2022-08-21T15:47:44.226Z,61.88
2022-08-21T15:52:47.554Z,62.21
2022-08-21T15:57:57.247Z,62.06
2022-08-21T16:03:05.430Z,62.00
2022-08-21T16:08:08.377Z,62.22
2022-08-21T16:13:21.313Z,62.57
2022-08-21T16:18:24.529Z,63.06
2022-08-21T16:23:27.665Z,63.53
2022-08-21T16:28:32.428Z,64.15
2022-08-21T16:33:39.020Z,64.66
2022-08-21T16:38:44.324Z,65.19
2022-08-21T16:43:49.108Z,65.55
2022-08-21T16:48:52.053Z,65.79
2022-08-21T16:53:54.986Z,65.86
2022-08-21T16:58:59.251Z,65.86
2022-08-21T17:04:02.326Z,66.21
2022-08-21T17:09:05.515Z,66.44
2022-08-21T17:14:12.499Z,66.76
2022-08-21T17:19:16.462Z,66.64
2022-08-21T17:24:19.440Z,66.94
2022-08-21T17:29:27.255Z,67.14
2022-08-21T17:34:31.157Z,67.33
2022-08-21T17:39:36.157Z,67.50
2022-08-21T17:44:44.719Z,68.09
2022-08-21T17:49:47.913Z,68.58
2022-08-21T17:54:50.950Z,68.28
2022-08-21T17:59:58.343Z,67.69
2022-08-21T18:05:02.664Z,67.68
2022-08-21T18:10:08.739Z,67.41
2022-08-21T18:15:17.947Z,67.11
2022-08-21T18:20:23.126Z,66.26
2022-08-21T18:25:26.401Z,65.88
2022-08-21T18:30:29.355Z,65.93
2022-08-21T18:35:32.548Z,66.09
2022-08-21T18:40:39.021Z,66.13
2022-08-21T18:45:42.418Z,66.24
2022-08-21T18:50:47.896Z,66.27
2022-08-21T18:55:51.456Z,66.18
2022-08-21T19:00:55.670Z,66.12
2022-08-21T19:05:58.612Z,66.41
2022-08-21T19:11:02.885Z,66.46
2022-08-21T19:16:09.601Z,66.38
2022-08-21T19:21:12.632Z,66.46
2022-08-21T19:26:16.773Z,66.49
2022-08-21T19:31:41.738Z,66.58
2022-08-21T19:36:45.363Z,66.54
2022-08-21T19:41:52.961Z,66.57
2022-08-21T19:46:58.505Z,66.56
2022-08-21T19:52:02.452Z,66.62
2022-08-21T19:57:18.989Z,66.44
2022-08-21T20:02:21.961Z,66.68
2022-08-21T20:07:26.303Z,66.73
2022-08-21T20:12:30.424Z,66.79
2022-08-21T20:17:33.341Z,66.81
2022-08-21T20:22:36.723Z,66.90
2022-08-21T20:27:41.558Z,66.87
2022-08-21T20:32:44.390Z,66.96
2022-08-21T20:37:47.558Z,66.99
2022-08-21T20:43:03.944Z,66.96
2022-08-21T20:48:23.579Z,67.02
2022-08-21T20:59:10.791Z,67.03
2022-08-21T21:04:54.231Z,67.13
2022-08-21T21:09:58.904Z,67.17
2022-08-21T21:21:03.717Z,67.17
2022-08-21T21:26:48.927Z,67.27
2022-08-21T21:31:54.301Z,67.40
2022-08-21T21:37:05.751Z,67.39
2022-08-21T21:42:30.147Z,67.17
2022-08-21T21:47:43.875Z,67.30
2022-08-21T21:53:12.668Z,67.23
2022-08-21T21:58:40.201Z,67.39
2022-08-21T22:03:57.460Z,67.41
2022-08-21T22:09:18.349Z,67.35
2022-08-21T22:14:22.698Z,67.23
2022-08-21T22:19:34.930Z,67.46
2022-08-21T22:24:42.843Z,67.39
2022-08-21T22:29:51.267Z,67.38
2022-08-21T22:35:09.590Z,67.35
2022-08-21T22:40:20.294Z,67.41
2022-08-21T22:45:23.306Z,67.42
2022-08-21T22:50:27.041Z,67.44
2022-08-21T22:55:44.034Z,67.38
2022-08-21T23:01:22.631Z,67.44
2022-08-21T23:06:34.892Z,67.41
2022-08-21T23:11:40.758Z,67.48
2022-08-21T23:17:16.111Z,67.48
2022-08-21T23:22:21.808Z,67.64
2022-08-21T23:27:48.564Z,67.47
2022-08-21T23:33:21.919Z,67.51
2022-08-21T23:38:43.701Z,67.54
2022-08-21T23:44:24.710Z,67.66
2022-08-21T23:49:48.539Z,67.72
2022-08-21T23:54:55.621Z,67.74
